Riverside Resolute — VHKQ — position and weather

sailwx.info

Track history (hours):
 
Tides and Currents Weather Stations Pressure Air Temp Water Temp Dewpoint Dewpoint Depression Visibility Wind Speed Wind Dir Waves Ship Positions

Riverside Resolute

Last reported at 2018-Jan-18 23:03 UTC. Time now 2018-Jan-19 03:33 UTC.
Position S 27°24' E 153°09'.

Length 78 m; draft 3.5 m.

Type: Ship. MMSI: 503032150.

Date/timePositionNaut miles runAvg speedWind from/ knotsBaromVisibWave heightAir tempDewpointWater temp
2018-Jan-18 23:03S 27°24' E 153°09'3 7.8
2018-Jan-18 22:38S 27°21' E 153°11'1 8.3
2018-Jan-18 22:27S 27°20' E 153°12'4 8.1
2018-Jan-18 22:00S 27°17' E 153°14'3 5.4
2018-Jan-18 21:29S 27°15' E 153°16'11 6.1
2018-Jan-18 19:46S 27°04' E 153°18'0 1.0
2018-Jan-18 19:23S 27°04' E 153°18'0 0.2
2018-Jan-18 18:49S 27°04' E 153°18'0 0.9
2018-Jan-18 18:28S 27°04' E 153°18'0 0.7
2018-Jan-18 17:57S 27°04' E 153°18'0 1.1
2018-Jan-18 17:30S 27°04' E 153°18'0 0.7
2018-Jan-18 17:00S 27°04' E 153°18'4 6.7
2018-Jan-18 16:27S 27°07' E 153°19'510.2
2018-Jan-18 16:00S 27°12' E 153°18'5 9.8
2018-Jan-18 15:30S 27°16' E 153°15'5 9.6
2018-Jan-18 15:00S 27°20' E 153°12'5 9.2
2018-Jan-18 14:30S 27°23' E 153°09'  
2018-Jan-12 14:58S 27°04' E 153°18'0 0.3
2018-Jan-12 14:30S 27°04' E 153°18'0 0.7
2018-Jan-12 14:00S 27°04' E 153°18'1 1.9
2018-Jan-12 13:24S 27°05' E 153°18'4 8.5
2018-Jan-12 12:54S 27°09' E 153°20'4 8.8
2018-Jan-12 12:30S 27°12' E 153°17'4 8.8
2018-Jan-12 12:00S 27°15' E 153°14'4 8.4
2018-Jan-12 11:28S 27°19' E 153°12'5 8.8
2018-Jan-12 10:57S 27°23' E 153°09'4 7.3
2018-Jan-12 10:21S 27°27' E 153°06'1 0.0
2018-Jan-11 17:41S 27°27' E 153°06'1 6.4
2018-Jan-11 17:29S 27°26' E 153°07'4 7.2
2018-Jan-11 17:00S 27°23' E 153°09'4 8.7
2018-Jan-11 16:30S 27°20' E 153°12'5 9.0
2018-Jan-11 16:00S 27°16' E 153°15'5 9.3
2018-Jan-11 15:27S 27°12' E 153°18'5 9.5
2018-Jan-11 14:59S 27°08' E 153°19'4 9.1
2018-Jan-11 14:30S 27°04' E 153°17'0 0.3
2018-Jan-11 13:52S 27°04' E 153°17'1 1.4
2018-Jan-11 13:17S 27°03' E 153°17'1 1.5
2018-Jan-11 12:45S 27°04' E 153°17'0 1.2
2018-Jan-11 12:30S 27°04' E 153°17'0 0.1
2018-Jan-11 11:47S 27°04' E 153°17'0 1.6
2018-Jan-11 11:29S 27°04' E 153°17'3 5.1
2018-Jan-11 10:58S 27°06' E 153°19'5 9.7
2018-Jan-11 10:26S 27°12' E 153°19'4 9.5
2018-Jan-11 10:00S 27°15' E 153°16'5 9.3
2018-Jan-11 09:29S 27°19' E 153°13'5 9.4
2018-Jan-11 09:00S 27°22' E 153°10'2 3.3
2018-Jan-11 08:30S 27°24' E 153°09'4 0.3
2018-Jan-10 19:47S 27°27' E 153°06'2 6.9
2018-Jan-10 19:25S 27°25' E 153°08'4 7.7
2018-Jan-10 18:56S 27°22' E 153°10'3 7.2
2018-Jan-10 18:30S 27°19' E 153°12'2 3.4
2018-Jan-10 18:00S 27°18' E 153°13'3 6.7
2018-Jan-10 17:30S 27°15' E 153°16'6 9.9
2018-Jan-10 16:57S 27°11' E 153°19'4 9.3
2018-Jan-10 16:28S 27°06' E 153°19'3 5.9
2018-Jan-10 15:58S 27°04' E 153°17'0 0.3
2018-Jan-10 15:30S 27°04' E 153°17'0 0.2
2018-Jan-10 14:33S 27°04' E 153°17'0 2.4
2018-Jan-10 14:30S 27°04' E 153°17'1 1.5
2018-Jan-10 13:59S 27°03' E 153°17'1 1.5
2018-Jan-10 13:29S 27°04' E 153°17'1 1.3
2018-Jan-10 13:00S 27°04' E 153°18'3 6.9
2018-Jan-10 12:30S 27°07' E 153°19'4 8.9
2018-Jan-10 12:00S 27°12' E 153°19'5 9.0
2018-Jan-10 11:30S 27°15' E 153°16'5 9.0
2018-Jan-10 10:58S 27°19' E 153°12'5 9.2
2018-Jan-10 10:28S 27°23' E 153°10'5 7.1
2018-Jan-10 09:50S 27°27' E 153°06'3 0.2
2018-Jan-09 18:31S 27°27' E 153°03'0 0.0
2018-Jan-09 18:13S 27°27' E 153°03'  
Track history (hours):
 
Tides and Currents Weather Stations Pressure Air Temp Water Temp Dewpoint Dewpoint Depression Visibility Wind Speed Wind Dir Waves Ship Positions

Riverside Resolute

Last reported at 2018-Jan-18 23:03 UTC. Time now 2018-Jan-19 03:33 UTC.
Position S 27°24' E 153°09'.

Length 78 m; draft 3.5 m.

Type: Ship. MMSI: 503032150.

Date/timePositionNaut miles runAvg speedWind from/ knotsBaromVisibWave heightAir tempDewpointWater temp
2018-Jan-18 23:03S 27°24' E 153°09'3 7.8
2018-Jan-18 22:38S 27°21' E 153°11'1 8.3
2018-Jan-18 22:27S 27°20' E 153°12'4 8.1
2018-Jan-18 22:00S 27°17' E 153°14'3 5.4
2018-Jan-18 21:29S 27°15' E 153°16'11 6.1
2018-Jan-18 19:46S 27°04' E 153°18'0 1.0
2018-Jan-18 19:23S 27°04' E 153°18'0 0.2
2018-Jan-18 18:49S 27°04' E 153°18'0 0.9
2018-Jan-18 18:28S 27°04' E 153°18'0 0.7
2018-Jan-18 17:57S 27°04' E 153°18'0 1.1
2018-Jan-18 17:30S 27°04' E 153°18'0 0.7
2018-Jan-18 17:00S 27°04' E 153°18'4 6.7
2018-Jan-18 16:27S 27°07' E 153°19'510.2
2018-Jan-18 16:00S 27°12' E 153°18'5 9.8
2018-Jan-18 15:30S 27°16' E 153°15'5 9.6
2018-Jan-18 15:00S 27°20' E 153°12'5 9.2
2018-Jan-18 14:30S 27°23' E 153°09'  
2018-Jan-12 14:58S 27°04' E 153°18'0 0.3
2018-Jan-12 14:30S 27°04' E 153°18'0 0.7
2018-Jan-12 14:00S 27°04' E 153°18'1 1.9
2018-Jan-12 13:24S 27°05' E 153°18'4 8.5
2018-Jan-12 12:54S 27°09' E 153°20'4 8.8
2018-Jan-12 12:30S 27°12' E 153°17'4 8.8
2018-Jan-12 12:00S 27°15' E 153°14'4 8.4
2018-Jan-12 11:28S 27°19' E 153°12'5 8.8
2018-Jan-12 10:57S 27°23' E 153°09'4 7.3
2018-Jan-12 10:21S 27°27' E 153°06'1 0.0
2018-Jan-11 17:41S 27°27' E 153°06'1 6.4
2018-Jan-11 17:29S 27°26' E 153°07'4 7.2
2018-Jan-11 17:00S 27°23' E 153°09'4 8.7
2018-Jan-11 16:30S 27°20' E 153°12'5 9.0
2018-Jan-11 16:00S 27°16' E 153°15'5 9.3
2018-Jan-11 15:27S 27°12' E 153°18'5 9.5
2018-Jan-11 14:59S 27°08' E 153°19'4 9.1
2018-Jan-11 14:30S 27°04' E 153°17'0 0.3
2018-Jan-11 13:52S 27°04' E 153°17'1 1.4
2018-Jan-11 13:17S 27°03' E 153°17'1 1.5
2018-Jan-11 12:45S 27°04' E 153°17'0 1.2
2018-Jan-11 12:30S 27°04' E 153°17'0 0.1
2018-Jan-11 11:47S 27°04' E 153°17'0 1.6
2018-Jan-11 11:29S 27°04' E 153°17'3 5.1
2018-Jan-11 10:58S 27°06' E 153°19'5 9.7
2018-Jan-11 10:26S 27°12' E 153°19'4 9.5
2018-Jan-11 10:00S 27°15' E 153°16'5 9.3
2018-Jan-11 09:29S 27°19' E 153°13'5 9.4
2018-Jan-11 09:00S 27°22' E 153°10'2 3.3
2018-Jan-11 08:30S 27°24' E 153°09'4 0.3
2018-Jan-10 19:47S 27°27' E 153°06'2 6.9
2018-Jan-10 19:25S 27°25' E 153°08'4 7.7
2018-Jan-10 18:56S 27°22' E 153°10'3 7.2
2018-Jan-10 18:30S 27°19' E 153°12'2 3.4
2018-Jan-10 18:00S 27°18' E 153°13'3 6.7
2018-Jan-10 17:30S 27°15' E 153°16'6 9.9
2018-Jan-10 16:57S 27°11' E 153°19'4 9.3
2018-Jan-10 16:28S 27°06' E 153°19'3 5.9
2018-Jan-10 15:58S 27°04' E 153°17'0 0.3
2018-Jan-10 15:30S 27°04' E 153°17'0 0.2
2018-Jan-10 14:33S 27°04' E 153°17'0 2.4
2018-Jan-10 14:30S 27°04' E 153°17'1 1.5
2018-Jan-10 13:59S 27°03' E 153°17'1 1.5
2018-Jan-10 13:29S 27°04' E 153°17'1 1.3
2018-Jan-10 13:00S 27°04' E 153°18'3 6.9
2018-Jan-10 12:30S 27°07' E 153°19'4 8.9
2018-Jan-10 12:00S 27°12' E 153°19'5 9.0
2018-Jan-10 11:30S 27°15' E 153°16'5 9.0
2018-Jan-10 10:58S 27°19' E 153°12'5 9.2
2018-Jan-10 10:28S 27°23' E 153°10'5 7.1
2018-Jan-10 09:50S 27°27' E 153°06'3 0.2
2018-Jan-09 18:31S 27°27' E 153°03'0 0.0
2018-Jan-09 18:13S 27°27' E 153°03'  

Dump ship's entire track history